Shindler, South Dakota
Current Conditions -  °F | °C
As of 10:56 AM on Thursday 27 Nov 2014 (Local Time) from KFSD Reporting Station
Broken Clouds Broken Clouds  
Wind Chill: -7°   Ceiling: 25000
Heat Index:   Visibility: 10mi
Dew Point: -7°   Wind: 6mph
Humidity: 60%   Direction: 140°SE
Pressure: 30.47"   Gusts: NA
Location:  43.5199°N, 96.7933°W
Report Text: KFSD 271656Z 14005KT 10SM FEW040 SCT200 BKN250 M16/M22 A3047 RMK AO2 SLP356 T11561217
Loading
Personal Weather Stations






























Interactive Weather Map New forecast layout! Learn more

10-Day Weather Forecast

Advertisements
Track Severe Weather on mobile